Minerva Zenia — SYNB — position and weather

sailwx.info

Track history (hours):
 
Tides and Currents Weather Stations Pressure Air Temp Water Temp Dewpoint Dewpoint Depression Visibility Wind Speed Wind Dir Waves Ship Positions

Minerva Zenia

Last reported at 2016-Jul-01 16:08 UTC. Time now 2016-Jul-02 02:16 UTC.
Position N 38°02' E 020°37'.

Length 248 m; draft 8.6 m.

Type: Tanker. MMSI: 240014000.

Date/timePositionNaut miles runAvg speedWind from/ knotsBaromVisibWave heightAir tempDewpointWater temp
2016-Jul-01 16:08N 38°02' E 020°37'0 0.0
2016-Jul-01 15:32N 38°02' E 020°37'0 0.0
2016-Jul-01 10:23N 38°02' E 020°37'0 0.0
2016-Jul-01 09:29N 38°02' E 020°37'0 0.0
2016-Jun-30 21:08N 38°02' E 020°37'0 0.0
2016-Jun-30 20:32N 38°02' E 020°37'0 0.0
2016-Jun-30 19:32N 38°02' E 020°37'0 0.0
2016-Jun-30 18:23N 38°02' E 020°37'0 0.0
2016-Jun-30 17:26N 38°02' E 020°37'0 0.0
2016-Jun-30 16:29N 38°02' E 020°37'0 0.0
2016-Jun-30 15:32N 38°02' E 020°37'0 0.0
2016-Jun-30 14:32N 38°02' E 020°37'0 0.0
2016-Jun-30 13:32N 38°02' E 020°37'0 0.0
2016-Jun-30 12:26N 38°02' E 020°37'0 0.0
2016-Jun-30 11:26N 38°02' E 020°37'0 0.0
2016-Jun-30 10:32N 38°02' E 020°37'0 0.0
2016-Jun-30 09:32N 38°02' E 020°37'0 0.0
2016-Jun-29 21:32N 38°02' E 020°37'  
2016-Jun-26 08:33N 45°07' E 013°06'  
2016-Jun-24 00:33N 45°25' E 013°03'9 8.6
2016-Jun-23 23:33N 45°25' E 012°51'1 0.8
2016-Jun-23 22:32N 45°25' E 012°49'0 0.0
2016-Jun-23 21:32N 45°25' E 012°49'0 0.0
2016-Jun-23 20:29N 45°25' E 012°49'0 0.0
2016-Jun-23 19:33N 45°25' E 012°49'0 0.0
2016-Jun-23 18:33N 45°25' E 012°49'0 0.0
2016-Jun-23 17:33N 45°25' E 012°49'0 0.0
2016-Jun-23 16:33N 45°25' E 012°49'0 0.0
2016-Jun-23 15:33N 45°25' E 012°49'0 0.0
2016-Jun-23 14:33N 45°25' E 012°49'0 0.0
2016-Jun-23 13:33N 45°25' E 012°49'0 0.0
2016-Jun-23 12:33N 45°25' E 012°49'0 0.0
2016-Jun-23 11:33N 45°25' E 012°49'0 0.0
2016-Jun-23 10:33N 45°25' E 012°49'0 0.1
2016-Jun-23 09:33N 45°25' E 012°49'2 2.3
2016-Jun-23 08:33N 45°25' E 012°53'23 3.9
2016-Jun-23 02:33N 45°09' E 013°16'1211.6
2016-Jun-23 01:33N 44°58' E 013°22'  
Track history (hours):
 
Tides and Currents Weather Stations Pressure Air Temp Water Temp Dewpoint Dewpoint Depression Visibility Wind Speed Wind Dir Waves Ship Positions

Minerva Zenia

Last reported at 2016-Jul-01 16:08 UTC. Time now 2016-Jul-02 02:16 UTC.
Position N 38°02' E 020°37'.

Length 248 m; draft 8.6 m.

Type: Tanker. MMSI: 240014000.

Date/timePositionNaut miles runAvg speedWind from/ knotsBaromVisibWave heightAir tempDewpointWater temp
2016-Jul-01 16:08N 38°02' E 020°37'0 0.0
2016-Jul-01 15:32N 38°02' E 020°37'0 0.0
2016-Jul-01 10:23N 38°02' E 020°37'0 0.0
2016-Jul-01 09:29N 38°02' E 020°37'0 0.0
2016-Jun-30 21:08N 38°02' E 020°37'0 0.0
2016-Jun-30 20:32N 38°02' E 020°37'0 0.0
2016-Jun-30 19:32N 38°02' E 020°37'0 0.0
2016-Jun-30 18:23N 38°02' E 020°37'0 0.0
2016-Jun-30 17:26N 38°02' E 020°37'0 0.0
2016-Jun-30 16:29N 38°02' E 020°37'0 0.0
2016-Jun-30 15:32N 38°02' E 020°37'0 0.0
2016-Jun-30 14:32N 38°02' E 020°37'0 0.0
2016-Jun-30 13:32N 38°02' E 020°37'0 0.0
2016-Jun-30 12:26N 38°02' E 020°37'0 0.0
2016-Jun-30 11:26N 38°02' E 020°37'0 0.0
2016-Jun-30 10:32N 38°02' E 020°37'0 0.0
2016-Jun-30 09:32N 38°02' E 020°37'0 0.0
2016-Jun-29 21:32N 38°02' E 020°37'  
2016-Jun-26 08:33N 45°07' E 013°06'  
2016-Jun-24 00:33N 45°25' E 013°03'9 8.6
2016-Jun-23 23:33N 45°25' E 012°51'1 0.8
2016-Jun-23 22:32N 45°25' E 012°49'0 0.0
2016-Jun-23 21:32N 45°25' E 012°49'0 0.0
2016-Jun-23 20:29N 45°25' E 012°49'0 0.0
2016-Jun-23 19:33N 45°25' E 012°49'0 0.0
2016-Jun-23 18:33N 45°25' E 012°49'0 0.0
2016-Jun-23 17:33N 45°25' E 012°49'0 0.0
2016-Jun-23 16:33N 45°25' E 012°49'0 0.0
2016-Jun-23 15:33N 45°25' E 012°49'0 0.0
2016-Jun-23 14:33N 45°25' E 012°49'0 0.0
2016-Jun-23 13:33N 45°25' E 012°49'0 0.0
2016-Jun-23 12:33N 45°25' E 012°49'0 0.0
2016-Jun-23 11:33N 45°25' E 012°49'0 0.0
2016-Jun-23 10:33N 45°25' E 012°49'0 0.1
2016-Jun-23 09:33N 45°25' E 012°49'2 2.3
2016-Jun-23 08:33N 45°25' E 012°53'23 3.9
2016-Jun-23 02:33N 45°09' E 013°16'1211.6
2016-Jun-23 01:33N 44°58' E 013°22'  

Dump ship's entire track history